Disclaimer

Please do not use the information listed here in-flight or in-navigation, as they are not provided to us by the airports but are provided by volunteers, so they might be outdated.

Search


Regions


Airport information page

No radio frequency information is available.

Airport informations:
Latitude: 23° 02' 24.48" S
Longitude: 045° 30' 57.64" W
Elevation: 1908 feet - 582 meters
Operating hours: UNKNOWN
Operating agency: Military
Timezone: UTC-3(-2DT)
Fuel: Jet A1, without icing nhibitor.

Runway information:
08/26 - 4894 x 98 feet< - >1492 x 30 meters

Recent METARs:
SBTA 211600Z 01005KT 320V060 8000 BKN014 OVC050 20/16 Q1019
SBTA 211600Z 01005KT 320V060 8000 BKN014 OVC050 20/16 Q1019
SBTA 211700Z VRB02KT 9000 OVC019 20/15 Q1018

Airport on the map: